sensor_id;sensor_type;location;lat;lon;timestamp;pressure;altitude;pressure_sealevel;temperature;humidity
34370;BME280;20635;55.812;37.560;2022-12-15T00:01:03;99606.13;;;26.86;41.69
34370;BME280;20635;55.812;37.560;2022-12-15T00:03:47;99603.34;;;26.86;41.97
34370;BME280;20635;55.812;37.560;2022-12-15T00:06:32;99605.31;;;26.85;42.37
34370;BME280;20635;55.812;37.560;2022-12-15T00:09:16;99608.94;;;26.86;42.24
34370;BME280;20635;55.812;37.560;2022-12-15T00:12:00;99616.56;;;26.85;41.80
34370;BME280;20635;55.812;37.560;2022-12-15T00:14:44;99622.19;;;26.85;41.70
34370;BME280;20635;55.812;37.560;2022-12-15T00:17:29;99614.91;;;26.84;42.01
34370;BME280;20635;55.812;37.560;2022-12-15T00:20:14;99628.13;;;26.84;42.33
34370;BME280;20635;55.812;37.560;2022-12-15T00:23:09;99627.00;;;26.85;41.62
34370;BME280;20635;55.812;37.560;2022-12-15T00:25:54;99630.94;;;26.84;41.99
34370;BME280;20635;55.812;37.560;2022-12-15T00:28:39;99631.31;;;26.82;42.18
34370;BME280;20635;55.812;37.560;2022-12-15T00:31:24;99632.13;;;26.83;42.32
34370;BME280;20635;55.812;37.560;2022-12-15T00:34:09;99632.47;;;26.81;42.28
34370;BME280;20635;55.812;37.560;2022-12-15T00:36:53;99626.84;;;26.81;42.15
34370;BME280;20635;55.812;37.560;2022-12-15T00:39:38;99628.84;;;26.80;42.10
34370;BME280;20635;55.812;37.560;2022-12-15T00:42:06;99633.66;;;26.80;42.34
34370;BME280;20635;55.812;37.560;2022-12-15T00:44:32;99633.66;;;26.80;42.26
34370;BME280;20635;55.812;37.560;2022-12-15T00:46:58;99631.66;;;26.80;42.03
34370;BME280;20635;55.812;37.560;2022-12-15T00:49:25;99629.66;;;26.81;42.24
34370;BME280;20635;55.812;37.560;2022-12-15T00:52:12;99637.28;;;26.80;41.70
34370;BME280;20635;55.812;37.560;2022-12-15T00:54:57;99635.28;;;26.81;42.08
34370;BME280;20635;55.812;37.560;2022-12-15T00:57:42;99632.47;;;26.81;41.96
34370;BME280;20635;55.812;37.560;2022-12-15T01:00:26;99638.09;;;26.81;41.92
34370;BME280;20635;55.812;37.560;2022-12-15T01:03:17;99638.91;;;26.81;42.11
34370;BME280;20635;55.812;37.560;2022-12-15T01:06:13;99642.53;;;26.82;41.79
34370;BME280;20635;55.812;37.560;2022-12-15T01:08:58;99646.84;;;26.79;42.43
34370;BME280;20635;55.812;37.560;2022-12-15T01:11:43;99647.72;;;26.80;42.12
34370;BME280;20635;55.812;37.560;2022-12-15T01:14:28;99657.28;;;26.79;42.30
34370;BME280;20635;55.812;37.560;2022-12-15T01:17:13;99660.09;;;26.79;42.10
34370;BME280;20635;55.812;37.560;2022-12-15T01:19:58;99659.28;;;26.78;42.27
34370;BME280;20635;55.812;37.560;2022-12-15T01:23:02;99665.03;;;26.82;42.23
34370;BME280;20635;55.812;37.560;2022-12-15T01:25:28;99668.53;;;26.79;42.78
34370;BME280;20635;55.812;37.560;2022-12-15T01:27:54;99664.06;;;26.78;42.85
34370;BME280;20635;55.812;37.560;2022-12-15T01:30:23;99673.34;;;26.78;42.78
34370;BME280;20635;55.812;37.560;2022-12-15T01:32:49;99666.88;;;26.78;42.88
34370;BME280;20635;55.812;37.560;2022-12-15T01:35:16;99673.34;;;26.78;42.78
34370;BME280;20635;55.812;37.560;2022-12-15T01:37:42;99663.63;;;26.76;42.89
34370;BME280;20635;55.812;37.560;2022-12-15T01:40:13;99661.25;;;26.78;42.72
34370;BME280;20635;55.812;37.560;2022-12-15T01:42:57;99659.63;;;26.77;43.01
34370;BME280;20635;55.812;37.560;2022-12-15T01:47:54;99673.69;;;26.77;42.99
34370;BME280;20635;55.812;37.560;2022-12-15T01:50:22;99679.31;;;26.77;43.25
34370;BME280;20635;55.812;37.560;2022-12-15T01:52:49;99673.19;;;26.75;43.29
34370;BME280;20635;55.812;37.560;2022-12-15T01:55:17;99686.09;;;26.76;43.33
34370;BME280;20635;55.812;37.560;2022-12-15T01:57:45;99682.78;;;26.74;43.40
34370;BME280;20635;55.812;37.560;2022-12-15T02:00:12;99682.47;;;26.75;43.46
34370;BME280;20635;55.812;37.560;2022-12-15T02:02:38;99686.09;;;26.76;43.60
34370;BME280;20635;55.812;37.560;2022-12-15T02:05:06;99689.72;;;26.76;43.28
34370;BME280;20635;55.812;37.560;2022-12-15T02:07:32;99680.81;;;26.74;43.18
34370;BME280;20635;55.812;37.560;2022-12-15T02:10:00;99680.47;;;26.76;43.51
34370;BME280;20635;55.812;37.560;2022-12-15T02:16:01;99696.63;;;26.79;42.69
34370;BME280;20635;55.812;37.560;2022-12-15T02:21:28;99697.81;;;26.78;43.13
34370;BME280;20635;55.812;37.560;2022-12-15T02:32:29;99709.41;;;26.76;43.42
34370;BME280;20635;55.812;37.560;2022-12-15T02:35:05;99716.19;;;26.75;43.60
34370;BME280;20635;55.812;37.560;2022-12-15T02:37:36;99719.00;;;26.75;43.81
34370;BME280;20635;55.812;37.560;2022-12-15T02:40:04;99718.50;;;26.73;43.68
34370;BME280;20635;55.812;37.560;2022-12-15T02:42:32;99720.16;;;26.74;42.62
34370;BME280;20635;55.812;37.560;2022-12-15T02:45:15;99717.84;;;26.76;43.76
34370;BME280;20635;55.812;37.560;2022-12-15T02:47:58;99714.22;;;26.76;43.56
34370;BME280;20635;55.812;37.560;2022-12-15T02:59:01;99719.84;;;26.76;43.59
34370;BME280;20635;55.812;37.560;2022-12-15T03:03:59;99724.50;;;26.72;43.23
34370;BME280;20635;55.812;37.560;2022-12-15T03:06:27;99713.25;;;26.72;43.31
34370;BME280;20635;55.812;37.560;2022-12-15T03:08:53;99723.31;;;26.73;43.33
34370;BME280;20635;55.812;37.560;2022-12-15T03:11:19;99712.53;;;26.75;43.67
34370;BME280;20635;55.812;37.560;2022-12-15T03:13:45;99714.88;;;26.73;43.09
34370;BME280;20635;55.812;37.560;2022-12-15T03:16:11;99720.16;;;26.74;42.93
34370;BME280;20635;55.812;37.560;2022-12-15T03:18:37;99720.66;;;26.76;42.59
34370;BME280;20635;55.812;37.560;2022-12-15T03:21:03;99709.41;;;26.76;42.52
34370;BME280;20635;55.812;37.560;2022-12-15T03:23:30;99719.47;;;26.77;42.45
34370;BME280;20635;55.812;37.560;2022-12-15T03:25:56;99724.75;;;26.79;42.13
34370;BME280;20635;55.812;37.560;2022-12-15T03:28:22;99736.81;;;26.79;42.38
34370;BME280;20635;55.812;37.560;2022-12-15T03:30:49;99731.69;;;26.81;42.00
34370;BME280;20635;55.812;37.560;2022-12-15T03:33:15;99730.53;;;26.83;42.10
34370;BME280;20635;55.812;37.560;2022-12-15T03:35:41;99725.41;;;26.85;42.23
34370;BME280;20635;55.812;37.560;2022-12-15T03:38:07;99729.84;;;26.86;42.08
34370;BME280;20635;55.812;37.560;2022-12-15T03:40:33;99730.66;;;26.86;41.91
34370;BME280;20635;55.812;37.560;2022-12-15T03:42:58;99723.06;;;26.87;41.72
34370;BME280;20635;55.812;37.560;2022-12-15T03:45:26;99731.13;;;26.88;40.81
34370;BME280;20635;55.812;37.560;2022-12-15T03:47:54;99734.44;;;26.90;40.37
34370;BME280;20635;55.812;37.560;2022-12-15T03:50:23;99744.53;;;26.91;40.23
34370;BME280;20635;55.812;37.560;2022-12-15T03:52:59;99738.91;;;26.91;40.00
34370;BME280;20635;55.812;37.560;2022-12-15T03:55:26;99748.16;;;26.92;39.69
34370;BME280;20635;55.812;37.560;2022-12-15T03:57:53;99741.34;;;26.93;39.38
34370;BME280;20635;55.812;37.560;2022-12-15T04:00:20;99736.56;;;26.93;39.05
34370;BME280;20635;55.812;37.560;2022-12-15T04:02:47;99749.47;;;26.94;39.24
34370;BME280;20635;55.812;37.560;2022-12-15T04:05:19;99751.94;;;26.96;38.93
34370;BME280;20635;55.812;37.560;2022-12-15T04:07:45;99751.13;;;26.95;38.85
34370;BME280;20635;55.812;37.560;2022-12-15T04:10:11;99746.31;;;26.96;38.53
34370;BME280;20635;55.812;37.560;2022-12-15T04:12:37;99744.31;;;26.96;38.29
34370;BME280;20635;55.812;37.560;2022-12-15T04:15:07;99751.56;;;26.97;38.43
34370;BME280;20635;55.812;37.560;2022-12-15T04:17:33;99754.06;;;26.99;38.10
34370;BME280;20635;55.812;37.560;2022-12-15T04:19:59;99753.25;;;26.98;38.10
34370;BME280;20635;55.812;37.560;2022-12-15T04:22:38;99757.69;;;26.99;37.80
34370;BME280;20635;55.812;37.560;2022-12-15T04:25:06;99765.78;;;27.01;37.92
34370;BME280;20635;55.812;37.560;2022-12-15T04:27:51;99762.16;;;27.00;37.71
34370;BME280;20635;55.812;37.560;2022-12-15T04:30:35;99775.03;;;27.01;37.67
34370;BME280;20635;55.812;37.560;2022-12-15T04:33:20;99768.25;;;27.02;37.45
34370;BME280;20635;55.812;37.560;2022-12-15T04:36:07;99762.63;;;27.02;37.04
34370;BME280;20635;55.812;37.560;2022-12-15T04:38:53;99758.16;;;27.01;37.14
34370;BME280;20635;55.812;37.560;2022-12-15T04:41:37;99762.16;;;27.00;36.81
34370;BME280;20635;55.812;37.560;2022-12-15T04:44:22;99768.25;;;27.02;36.93
34370;BME280;20635;55.812;37.560;2022-12-15T04:47:07;99778.69;;;27.02;36.84
34370;BME280;20635;55.812;37.560;2022-12-15T04:49:51;99784.28;;;27.02;36.94
34370;BME280;20635;55.812;37.560;2022-12-15T04:52:35;99790.75;;;27.02;36.40
34370;BME280;20635;55.812;37.560;2022-12-15T04:55:19;99791.91;;;27.01;36.47
34370;BME280;20635;55.812;37.560;2022-12-15T04:58:08;99796.38;;;27.02;36.68
34370;BME280;20635;55.812;37.560;2022-12-15T05:00:53;99794.72;;;27.01;36.48
34370;BME280;20635;55.812;37.560;2022-12-15T05:03:37;99791.91;;;27.01;36.58
34370;BME280;20635;55.812;37.560;2022-12-15T05:06:21;99800.34;;;27.01;36.21
34370;BME280;20635;55.812;37.560;2022-12-15T05:09:06;99803.16;;;27.01;36.38
34370;BME280;20635;55.812;37.560;2022-12-15T05:11:50;99809.63;;;27.02;35.93
34370;BME280;20635;55.812;37.560;2022-12-15T05:14:34;99810.78;;;27.01;35.92
34370;BME280;20635;55.812;37.560;2022-12-15T05:17:19;99815.22;;;27.02;36.01
34370;BME280;20635;55.812;37.560;2022-12-15T05:20:03;99825.66;;;27.01;36.04
34370;BME280;20635;55.812;37.560;2022-12-15T05:22:52;99818.03;;;27.02;35.72
34370;BME280;20635;55.812;37.560;2022-12-15T05:25:38;99817.22;;;27.01;35.99
34370;BME280;20635;55.812;37.560;2022-12-15T05:28:22;99812.41;;;27.02;35.62
34370;BME280;20635;55.812;37.560;2022-12-15T05:31:07;99811.59;;;27.01;35.52
34370;BME280;20635;55.812;37.560;2022-12-15T05:33:53;99816.06;;;27.02;35.58
34370;BME280;20635;55.812;37.560;2022-12-15T05:36:19;99814.41;;;27.01;35.55
34370;BME280;20635;55.812;37.560;2022-12-15T05:38:49;99817.22;;;27.01;35.50
34370;BME280;20635;55.812;37.560;2022-12-15T05:41:18;99819.72;;;27.03;35.51
34370;BME280;20635;55.812;37.560;2022-12-15T05:43:46;99818.88;;;27.02;35.25
34370;BME280;20635;55.812;37.560;2022-12-15T05:46:12;99826.84;;;27.00;35.48
34370;BME280;20635;55.812;37.560;2022-12-15T05:48:40;99828.47;;;27.01;35.29
34370;BME280;20635;55.812;37.560;2022-12-15T05:51:09;99824.50;;;27.02;35.29
34370;BME280;20635;55.812;37.560;2022-12-15T05:53:37;99830.13;;;27.02;35.24
34370;BME280;20635;55.812;37.560;2022-12-15T05:56:06;99829.28;;;27.02;35.00
34370;BME280;20635;55.812;37.560;2022-12-15T05:58:32;99834.09;;;27.01;35.24
34370;BME280;20635;55.812;37.560;2022-12-15T06:01:23;99837.41;;;27.03;34.96
34370;BME280;20635;55.812;37.560;2022-12-15T06:03:48;99843.03;;;27.03;35.17
34370;BME280;20635;55.812;37.560;2022-12-15T06:06:14;99838.56;;;27.02;34.82
34370;BME280;20635;55.812;37.560;2022-12-15T06:08:42;99854.28;;;27.03;35.20
34370;BME280;20635;55.812;37.560;2022-12-15T06:11:13;99848.31;;;27.05;34.99
34370;BME280;20635;55.812;37.560;2022-12-15T06:13:40;99839.41;;;27.03;34.71
34370;BME280;20635;55.812;37.560;2022-12-15T06:16:10;99834.59;;;27.03;34.81
34370;BME280;20635;55.812;37.560;2022-12-15T06:18:39;99838.56;;;27.02;34.73
34370;BME280;20635;55.812;37.560;2022-12-15T06:21:09;99845.84;;;27.03;34.75
34370;BME280;20635;55.812;37.560;2022-12-15T06:23:35;99843.03;;;27.03;34.61
34370;BME280;20635;55.812;37.560;2022-12-15T06:28:46;99852.28;;;27.04;34.51
34370;BME280;20635;55.812;37.560;2022-12-15T06:31:13;99846.66;;;27.04;34.53
34370;BME280;20635;55.812;37.560;2022-12-15T06:33:39;99854.28;;;27.03;34.46
34370;BME280;20635;55.812;37.560;2022-12-15T06:36:08;99865.19;;;27.05;34.52
34370;BME280;20635;55.812;37.560;2022-12-15T06:38:35;99860.72;;;27.04;34.51
34370;BME280;20635;55.812;37.560;2022-12-15T06:41:03;99859.91;;;27.03;34.33
34370;BME280;20635;55.812;37.560;2022-12-15T06:43:29;99877.25;;;27.05;34.34
34370;BME280;20635;55.812;37.560;2022-12-15T06:45:56;99876.78;;;27.03;34.49
34370;BME280;20635;55.812;37.560;2022-12-15T06:48:22;99877.59;;;27.04;34.01
34370;BME280;20635;55.812;37.560;2022-12-15T06:50:49;99872.00;;;27.04;34.42
34370;BME280;20635;55.812;37.560;2022-12-15T06:53:16;99885.69;;;27.05;33.91
34370;BME280;20635;55.812;37.560;2022-12-15T06:55:43;99885.69;;;27.05;34.38
34370;BME280;20635;55.812;37.560;2022-12-15T06:58:13;99894.97;;;27.06;33.97
34370;BME280;20635;55.812;37.560;2022-12-15T07:00:41;99886.03;;;27.04;33.92
34370;BME280;20635;55.812;37.560;2022-12-15T07:03:16;99888.19;;;27.07;34.05
34370;BME280;20635;55.812;37.560;2022-12-15T07:05:44;99902.56;;;27.05;34.02
34370;BME280;20635;55.812;37.560;2022-12-15T07:08:15;99893.66;;;27.03;33.93
34370;BME280;20635;55.812;37.560;2022-12-15T07:10:44;99899.75;;;27.05;33.89
34370;BME280;20635;55.812;37.560;2022-12-15T07:13:12;99909.84;;;27.06;33.76
34370;BME280;20635;55.812;37.560;2022-12-15T07:15:39;99908.19;;;27.05;33.66
34370;BME280;20635;55.812;37.560;2022-12-15T07:18:06;99917.47;;;27.06;33.89
34370;BME280;20635;55.812;37.560;2022-12-15T07:20:32;99911.00;;;27.05;33.56
34370;BME280;20635;55.812;37.560;2022-12-15T07:22:58;99908.19;;;27.05;33.71
34370;BME280;20635;55.812;37.560;2022-12-15T07:25:25;99908.19;;;27.05;33.61
34370;BME280;20635;55.812;37.560;2022-12-15T07:27:51;99910.19;;;27.05;33.67
34370;BME280;20635;55.812;37.560;2022-12-15T07:30:17;99913.81;;;27.05;33.65
34370;BME280;20635;55.812;37.560;2022-12-15T07:32:43;99911.00;;;27.05;33.57
34370;BME280;20635;55.812;37.560;2022-12-15T07:35:10;99915.00;;;27.04;33.30
34370;BME280;20635;55.812;37.560;2022-12-15T07:37:36;99914.16;;;27.04;33.59
34370;BME280;20635;55.812;37.560;2022-12-15T07:40:03;99920.28;;;27.06;33.73
34370;BME280;20635;55.812;37.560;2022-12-15T07:42:30;99911.38;;;27.04;33.46
34370;BME280;20635;55.812;37.560;2022-12-15T07:44:56;99898.47;;;27.03;33.11
34370;BME280;20635;55.812;37.560;2022-12-15T07:47:23;99896.47;;;27.03;33.59
34370;BME280;20635;55.812;37.560;2022-12-15T07:49:48;99894.81;;;27.02;33.35
34370;BME280;20635;55.812;37.560;2022-12-15T07:52:15;99911.00;;;27.05;33.27
34370;BME280;20635;55.812;37.560;2022-12-15T07:54:41;99914.16;;;27.04;33.31
34370;BME280;20635;55.812;37.560;2022-12-15T07:57:07;99919.44;;;27.05;33.48
34370;BME280;20635;55.812;37.560;2022-12-15T07:59:33;99913.81;;;27.05;33.30
34370;BME280;20635;55.812;37.560;2022-12-15T08:01:59;99929.88;;;27.05;33.34
34370;BME280;20635;55.812;37.560;2022-12-15T08:04:26;99921.44;;;27.05;32.93
34370;BME280;20635;55.812;37.560;2022-12-15T08:06:53;99922.59;;;27.04;33.20
34370;BME280;20635;55.812;37.560;2022-12-15T08:09:19;99923.44;;;27.04;32.84
34370;BME280;20635;55.812;37.560;2022-12-15T08:11:45;99933.50;;;27.05;33.36
34370;BME280;20635;55.812;37.560;2022-12-15T08:14:11;99933.88;;;27.04;33.17
34370;BME280;20635;55.812;37.560;2022-12-15T08:16:37;99935.03;;;27.03;33.12
34370;BME280;20635;55.812;37.560;2022-12-15T08:19:04;99927.06;;;27.05;32.91
34370;BME280;20635;55.812;37.560;2022-12-15T08:21:31;99922.25;;;27.05;33.17
34370;BME280;20635;55.812;37.560;2022-12-15T08:23:58;99916.97;;;27.04;32.83
34370;BME280;20635;55.812;37.560;2022-12-15T08:26:27;99919.44;;;27.05;32.96
34370;BME280;20635;55.812;37.560;2022-12-15T08:28:53;99907.72;;;27.03;32.79
34370;BME280;20635;55.812;37.560;2022-12-15T08:31:21;99916.97;;;27.04;32.66
34370;BME280;20635;55.812;37.560;2022-12-15T08:33:48;99919.81;;;27.04;33.13
34370;BME280;20635;55.812;37.560;2022-12-15T08:36:15;99922.25;;;27.05;32.74
34370;BME280;20635;55.812;37.560;2022-12-15T08:38:43;99917.31;;;27.02;32.99
34370;BME280;20635;55.812;37.560;2022-12-15T08:41:17;99922.59;;;27.04;32.71
34370;BME280;20635;55.812;37.560;2022-12-15T08:43:46;99930.69;;;27.05;32.80
34370;BME280;20635;55.812;37.560;2022-12-15T08:46:12;99929.88;;;27.05;32.88
34370;BME280;20635;55.812;37.560;2022-12-15T08:48:38;99922.59;;;27.04;32.62
34370;BME280;20635;55.812;37.560;2022-12-15T08:51:04;99927.06;;;27.05;32.82
34370;BME280;20635;55.812;37.560;2022-12-15T08:53:30;99917.81;;;27.04;32.51
34370;BME280;20635;55.812;37.560;2022-12-15T08:56:08;99927.56;;;27.07;32.90
34370;BME280;20635;55.812;37.560;2022-12-15T08:58:35;99924.25;;;27.05;32.65
34370;BME280;20635;55.812;37.560;2022-12-15T09:01:06;99931.88;;;27.04;32.74
34370;BME280;20635;55.812;37.560;2022-12-15T09:03:33;99933.50;;;27.05;32.60
34370;BME280;20635;55.812;37.560;2022-12-15T09:06:09;99932.34;;;27.06;32.73
34370;BME280;20635;55.812;37.560;2022-12-15T09:08:36;99931.03;;;27.04;32.29
34370;BME280;20635;55.812;37.560;2022-12-15T09:11:02;99935.84;;;27.03;32.60
34370;BME280;20635;55.812;37.560;2022-12-15T09:13:30;99933.88;;;27.04;32.36
34370;BME280;20635;55.812;37.560;2022-12-15T09:16:18;99930.38;;;27.07;32.41
34370;BME280;20635;55.812;37.560;2022-12-15T09:19:21;99924.25;;;27.05;32.38
34370;BME280;20635;55.812;37.560;2022-12-15T09:21:46;99918.97;;;27.03;32.30
34370;BME280;20635;55.812;37.560;2022-12-15T09:24:14;99918.97;;;27.03;32.18
34370;BME280;20635;55.812;37.560;2022-12-15T09:45:40;99881.59;;;27.03;32.56
34370;BME280;20635;55.812;37.560;2022-12-15T09:48:18;99889.53;;;27.01;32.25
34370;BME280;20635;55.812;37.560;2022-12-15T09:50:53;99873.47;;;27.01;32.32
34370;BME280;20635;55.812;37.560;2022-12-15T09:54:30;99863.03;;;27.02;32.39
34370;BME280;20635;55.812;37.560;2022-12-15T09:57:38;99857.91;;;27.04;32.17
34370;BME280;20635;55.812;37.560;2022-12-15T10:09:53;99828.31;;;26.98;32.06
34370;BME280;20635;55.812;37.560;2022-12-15T10:12:28;99825.19;;;26.99;31.93
34370;BME280;20635;55.812;37.560;2022-12-15T10:21:26;99811.00;;;26.96;32.23
34370;BME280;20635;55.812;37.560;2022-12-15T11:14:09;99846.88;;;26.99;31.57
34370;BME280;20635;55.812;37.560;2022-12-15T11:26:00;99857.78;;;27.00;31.37
34370;BME280;20635;55.812;37.560;2022-12-15T11:32:57;99851.69;;;26.98;31.45
34370;BME280;20635;55.812;37.560;2022-12-15T11:41:34;99837.72;;;27.02;31.54
34370;BME280;20635;55.812;37.560;2022-12-15T11:44:21;99829.78;;;27.04;31.44
34370;BME280;20635;55.812;37.560;2022-12-15T11:53:00;99818.03;;;27.02;31.25
34370;BME280;20635;55.812;37.560;2022-12-15T11:56:07;99830.13;;;27.02;31.26
34370;BME280;20635;55.812;37.560;2022-12-15T12:10:42;99806.94;;;27.05;31.28
34370;BME280;20635;55.812;37.560;2022-12-15T12:12:59;99806.94;;;27.05;31.26
34370;BME280;20635;55.812;37.560;2022-12-15T12:16:26;99809.28;;;27.03;31.11
34370;BME280;20635;55.812;37.560;2022-12-15T12:18:29;99789.09;;;27.01;31.33
34370;BME280;20635;55.812;37.560;2022-12-15T12:21:07;99801.19;;;27.02;31.27
34370;BME280;20635;55.812;37.560;2022-12-15T12:23:37;99789.09;;;27.01;31.32
34370;BME280;20635;55.812;37.560;2022-12-15T12:26:23;99782.81;;;27.04;31.33
34370;BME280;20635;55.812;37.560;2022-12-15T12:28:56;99780.34;;;27.03;31.02
34370;BME280;20635;55.812;37.560;2022-12-15T12:31:42;99776.34;;;27.04;31.29
34370;BME280;20635;55.812;37.560;2022-12-15T12:34:24;99783.97;;;27.03;31.30
34370;BME280;20635;55.812;37.560;2022-12-15T12:36:52;99773.06;;;27.02;30.90
34370;BME280;20635;55.812;37.560;2022-12-15T12:39:22;99777.84;;;27.01;31.19
34370;BME280;20635;55.812;37.560;2022-12-15T12:44:37;99768.75;;;27.04;31.12
34370;BME280;20635;55.812;37.560;2022-12-15T12:49:44;99772.72;;;27.03;30.88
34370;BME280;20635;55.812;37.560;2022-12-15T12:52:29;99769.56;;;27.05;31.18
34370;BME280;20635;55.812;37.560;2022-12-15T12:54:58;99761.81;;;27.02;31.25
34370;BME280;20635;55.812;37.560;2022-12-15T12:57:32;99754.19;;;27.02;30.91
34370;BME280;20635;55.812;37.560;2022-12-15T13:00:27;99748.25;;;27.04;31.09
34370;BME280;20635;55.812;37.560;2022-12-15T13:03:20;99744.25;;;27.05;30.93
34370;BME280;20635;55.812;37.560;2022-12-15T13:05:48;99742.47;;;27.00;30.96
34370;BME280;20635;55.812;37.560;2022-12-15T13:08:17;99734.03;;;27.00;30.78
34370;BME280;20635;55.812;37.560;2022-12-15T13:10:47;99725.59;;;27.00;31.03
34370;BME280;20635;55.812;37.560;2022-12-15T13:16:04;99729.22;;;27.01;31.08
34370;BME280;20635;55.812;37.560;2022-12-15T13:19:00;99712.00;;;27.02;31.01
34370;BME280;20635;55.812;37.560;2022-12-15T13:21:54;99716.94;;;27.05;31.16
34370;BME280;20635;55.812;37.560;2022-12-15T13:24:33;99714.50;;;27.04;30.74
34370;BME280;20635;55.812;37.560;2022-12-15T13:27:17;99715.66;;;27.03;30.77
34370;BME280;20635;55.812;37.560;2022-12-15T13:32:36;99696.78;;;27.03;30.79
34370;BME280;20635;55.812;37.560;2022-12-15T13:37:53;99682.25;;;27.01;30.88
34370;BME280;20635;55.812;37.560;2022-12-15T13:40:30;99675.78;;;27.01;30.63
34370;BME280;20635;55.812;37.560;2022-12-15T13:43:08;99688.34;;;27.03;30.77
34370;BME280;20635;55.812;37.560;2022-12-15T13:46:30;99678.38;;;27.06;30.68
34370;BME280;20635;55.812;37.560;2022-12-15T13:49:05;99677.44;;;27.02;30.58
34370;BME280;20635;55.812;37.560;2022-12-15T13:51:34;99666.53;;;27.00;30.80
34370;BME280;20635;55.812;37.560;2022-12-15T13:54:14;99665.38;;;27.01;30.73
34370;BME280;20635;55.812;37.560;2022-12-15T13:57:04;99661.38;;;27.02;30.71
34370;BME280;20635;55.812;37.560;2022-12-15T13:59:46;99662.56;;;27.01;30.64
34370;BME280;20635;55.812;37.560;2022-12-15T14:02:30;99663.88;;;27.04;30.73
34370;BME280;20635;55.812;37.560;2022-12-15T14:05:17;99668.66;;;27.03;30.82
34370;BME280;20635;55.812;37.560;2022-12-15T14:07:48;99660.91;;;27.00;30.42
34370;BME280;20635;55.812;37.560;2022-12-15T14:18:43;99658.91;;;27.01;30.48
34370;BME280;20635;55.812;37.560;2022-12-15T14:21:20;99658.56;;;27.02;30.46
34370;BME280;20635;55.812;37.560;2022-12-15T14:23:46;99660.09;;;27.00;30.53
34370;BME280;20635;55.812;37.560;2022-12-15T14:26:14;99654.47;;;27.00;30.42
34370;BME280;20635;55.812;37.560;2022-12-15T14:28:42;99644.03;;;27.00;30.64
34370;BME280;20635;55.812;37.560;2022-12-15T14:31:15;99645.69;;;27.01;30.42
34370;BME280;20635;55.812;37.560;2022-12-15T14:33:44;99643.22;;;27.00;30.31
34370;BME280;20635;55.812;37.560;2022-12-15T14:36:13;99648.03;;;26.99;30.52
34370;BME280;20635;55.812;37.560;2022-12-15T14:38:50;99631.97;;;27.00;30.47
34370;BME280;20635;55.812;37.560;2022-12-15T14:41:29;99641.69;;;27.02;30.16
34370;BME280;20635;55.812;37.560;2022-12-15T14:44:48;99635.25;;;27.02;30.54
34370;BME280;20635;55.812;37.560;2022-12-15T14:46:49;99637.59;;;27.00;30.27
34370;BME280;20635;55.812;37.560;2022-12-15T14:49:39;99632.44;;;27.02;30.48
34370;BME280;20635;55.812;37.560;2022-12-15T14:52:06;99633.97;;;26.99;30.53
34370;BME280;20635;55.812;37.560;2022-12-15T14:54:51;99638.88;;;27.02;30.37
34370;BME280;20635;55.812;37.560;2022-12-15T14:57:27;99620.38;;;27.01;30.33
34370;BME280;20635;55.812;37.560;2022-12-15T14:59:53;99626.34;;;27.00;30.43
34370;BME280;20635;55.812;37.560;2022-12-15T15:02:25;99632.44;;;27.02;30.23
34370;BME280;20635;55.812;37.560;2022-12-15T15:05:19;99630.44;;;27.02;30.16
34370;BME280;20635;55.812;37.560;2022-12-15T15:07:45;99629.16;;;27.00;30.33
34370;BME280;20635;55.812;37.560;2022-12-15T15:10:23;99633.25;;;27.02;30.28
34370;BME280;20635;55.812;37.560;2022-12-15T15:12:51;99627.16;;;27.00;30.28
34370;BME280;20635;55.812;37.560;2022-12-15T15:15:19;99639.22;;;27.01;30.19
34370;BME280;20635;55.812;37.560;2022-12-15T15:17:55;99639.72;;;27.03;30.44
34370;BME280;20635;55.812;37.560;2022-12-15T15:20:32;99646.16;;;27.03;30.22
34370;BME280;20635;55.812;37.560;2022-12-15T15:25:39;99635.25;;;27.02;30.14
34370;BME280;20635;55.812;37.560;2022-12-15T15:33:16;99631.63;;;27.01;30.40
34370;BME280;20635;55.812;37.560;2022-12-15T15:35:44;99638.06;;;27.02;30.19
34370;BME280;20635;55.812;37.560;2022-12-15T15:38:15;99627.63;;;27.02;30.10
34370;BME280;20635;55.812;37.560;2022-12-15T15:40:50;99639.72;;;27.03;30.14
34370;BME280;20635;55.812;37.560;2022-12-15T15:43:17;99626.00;;;27.01;29.98
34370;BME280;20635;55.812;37.560;2022-12-15T15:45:44;99609.13;;;27.01;30.26
34370;BME280;20635;55.812;37.560;2022-12-15T15:48:25;99613.25;;;27.04;29.99
34370;BME280;20635;55.812;37.560;2022-12-15T15:50:52;99593.06;;;27.02;30.19
34370;BME280;20635;55.812;37.560;2022-12-15T15:53:20;99588.25;;;27.02;29.98
34370;BME280;20635;55.812;37.560;2022-12-15T15:55:48;99593.41;;;27.00;29.90
34370;BME280;20635;55.812;37.560;2022-12-15T15:58:16;99593.06;;;27.02;30.15
34370;BME280;20635;55.812;37.560;2022-12-15T16:00:43;99581.00;;;27.01;29.94
34370;BME280;20635;55.812;37.560;2022-12-15T16:03:09;99586.28;;;27.03;29.95
34370;BME280;20635;55.812;37.560;2022-12-15T16:05:35;99566.94;;;27.01;30.17
34370;BME280;20635;55.812;37.560;2022-12-15T16:08:02;99564.13;;;27.01;29.89
34370;BME280;20635;55.812;37.560;2022-12-15T16:10:28;99548.06;;;27.02;29.97
34370;BME280;20635;55.812;37.560;2022-12-15T16:12:57;99543.25;;;27.02;29.96
34370;BME280;20635;55.812;37.560;2022-12-15T16:15:27;99548.06;;;27.02;30.13
34370;BME280;20635;55.812;37.560;2022-12-15T16:17:54;99536.81;;;27.02;29.71
34370;BME280;20635;55.812;37.560;2022-12-15T16:20:21;99531.19;;;27.02;30.08
34370;BME280;20635;55.812;37.560;2022-12-15T16:22:50;99529.19;;;27.02;29.86
34370;BME280;20635;55.812;37.560;2022-12-15T16:25:28;99533.69;;;27.03;30.01
34370;BME280;20635;55.812;37.560;2022-12-15T16:27:54;99513.88;;;27.00;29.76